• Join FlightAware (Why Join?)
  • Login
  • US Flag 
01:09AM EDT


 

Airport Tracker/Info


-or-


 

Live Flight TrackerFlight Track Log ✈ N4978T ✈ 17-Sep-2013 ✈ MUVT / VTU - KSMO

Flight Track Log - Related Links

Times and Time Zones

All times are in EDT time to prevent confusion due to time zone crossing. See the N4978T flight status page for this flight to view local times or setup timezone preferences in your user account.

Time Position Orientation Groundspeed Altitude Reporting Facility
EDT Latitude Longitude Course Direction KTS MPH feet Rate Location/Type
07:26PM 34.3781 -118.9989 101° East 162 186 5,700  Level Los Angeles Center
07:26PM 34.3731 -118.9883 120° Southeast 147 169 5,700  Level Los Angeles Center
07:27PM 34.3667 -118.9511 102° East 150 173 5,700  Level Los Angeles Center
07:28PM 34.3589 -118.8994 100° East 155 178 5,700  Level Los Angeles Center
07:29PM 34.3472 -118.8461 105° East 163 188 5,700  Level Los Angeles Center
07:30PM 34.3289 -118.8008 116° Southeast 152 175 5,700  Level Los Angeles Center
07:31PM 34.3119 -118.7553 114° Southeast 151 174 5,700  Level Los Angeles Center
07:32PM 21.0802 -77.1177 101° East  Level Estimated
07:32PM 34.2922 -118.6981 113° Southeast 151 174 5,700  Level Los Angeles Center
07:33PM 34.2764 -118.6500 112° Southeast 152 175 5,700 -60 Level Los Angeles Center
07:34PM 34.2667 -118.6000 103° East 153 176 5,600 -60 Descending Southern California TRACON
07:35PM 34.2500 -118.5500 112° Southeast 152 175 5,600  Level Southern California TRACON
07:36PM 34.2333 -118.5167 121° Southeast 150 173 5,600  Level Southern California TRACON
07:37PM 34.2167 -118.4667 112° Southeast 148 170 5,600  Level Southern California TRACON
07:38PM 34.2000 -118.4167 112° Southeast 145 167 5,600  Level Southern California TRACON
07:39PM 34.1833 -118.3667 112° Southeast 166 191 5,600 -300 Level Southern California TRACON
07:40PM 34.1667 -118.3167 112° Southeast 137 158 5,000 -780 Descending Southern California TRACON
07:41PM 34.1333 -118.3167 180° South 115 132 4,100 -900 Descending Southern California TRACON
07:42PM 34.1000 -118.3333 202° Southwest 133 153 3,200 -720 Descending Southern California TRACON
07:43PM 34.0833 -118.3667 239° Southwest 117 135 2,700 -600 Descending Southern California TRACON
07:44PM 34.0667 -118.3833 220° Southwest 108 124 2,000 -780 Descending Southern California TRACON
07:45PM 34.0500 -118.4167 239° Southwest 92 106 1,200 -600 Descending Southern California TRACON
07:46PM 34.0333 -118.4333 220° Southwest 66 76 800 -360 Descending Southern California TRACON
07:47PM 34.0269 -118.4381 211° Southwest 84 97 700 -300 Descending Los Angeles Center
07:48PM 34.0175 -118.4506 228° Southwest 73 84 400 -300 Descending Los Angeles Center